createdAt,value
2023-05-23T00:01:38.098Z,54.63
2023-05-23T00:04:17.580Z,54.95
2023-05-23T00:06:51.907Z,55.08
2023-05-23T00:09:26.796Z,55.32
2023-05-23T00:12:04.162Z,55.45
2023-05-23T00:14:37.764Z,55.55
2023-05-23T00:17:12.587Z,55.71
2023-05-23T00:19:47.228Z,55.78
2023-05-23T00:22:21.316Z,55.88
2023-05-23T00:24:54.816Z,55.87
2023-05-23T00:27:28.956Z,55.84
2023-05-23T00:30:02.659Z,55.96
2023-05-23T00:32:36.945Z,56.09
2023-05-23T00:35:12.326Z,56.16
2023-05-23T00:37:45.938Z,56.11
2023-05-23T00:40:19.907Z,56.27
2023-05-23T00:42:53.919Z,56.35
2023-05-23T00:45:28.144Z,56.29
2023-05-23T00:48:02.430Z,56.17
2023-05-23T00:50:37.021Z,56.15
2023-05-23T00:53:10.424Z,56.24
2023-05-23T00:55:45.933Z,56.22
2023-05-23T00:58:20.133Z,56.25
2023-05-23T01:00:54.951Z,56.24
2023-05-23T01:03:29.098Z,56.10
2023-05-23T01:06:03.063Z,56.22
2023-05-23T01:08:36.909Z,56.38
2023-05-23T01:11:16.368Z,56.41
2023-05-23T01:14:01.659Z,56.56
2023-05-23T01:16:44.060Z,56.70
2023-05-23T01:19:43.410Z,56.68
2023-05-23T01:22:25.493Z,56.83
2023-05-23T01:25:09.400Z,56.93
2023-05-23T01:27:57.816Z,57.01
2023-05-23T01:30:37.057Z,56.91
2023-05-23T01:33:12.871Z,56.84
2023-05-23T01:35:46.851Z,56.84
2023-05-23T01:38:21.468Z,56.73
2023-05-23T01:40:55.175Z,56.61
2023-05-23T01:43:28.701Z,56.75
2023-05-23T01:46:03.388Z,56.60
2023-05-23T01:48:37.963Z,56.47
2023-05-23T01:51:12.149Z,56.23
2023-05-23T01:53:47.241Z,56.24
2023-05-23T01:56:21.972Z,56.23
2023-05-23T01:58:55.679Z,56.28
2023-05-23T02:01:29.462Z,56.28
2023-05-23T02:04:05.532Z,56.09
2023-05-23T02:06:39.215Z,56.10
2023-05-23T02:09:13.109Z,55.98
2023-05-23T02:11:46.722Z,55.92
2023-05-23T02:14:20.719Z,55.87
2023-05-23T02:16:54.463Z,55.83
2023-05-23T02:19:28.644Z,55.68
2023-05-23T02:22:04.094Z,55.75
2023-05-23T02:24:38.060Z,55.90
2023-05-23T02:27:12.698Z,55.95
2023-05-23T02:29:46.383Z,55.87
2023-05-23T02:32:19.988Z,55.77
2023-05-23T02:34:55.113Z,55.65
2023-05-23T02:37:31.030Z,55.73
2023-05-23T02:40:05.194Z,55.83
2023-05-23T02:42:38.922Z,55.83
2023-05-23T02:45:14.627Z,55.83
2023-05-23T02:47:48.081Z,55.81
2023-05-23T02:50:21.864Z,55.78
2023-05-23T02:52:55.845Z,55.72
2023-05-23T02:55:33.161Z,55.89
2023-05-23T02:58:07.494Z,55.77
2023-05-23T03:00:44.475Z,55.78
2023-05-23T03:03:18.916Z,55.80
2023-05-23T03:05:52.778Z,55.94
2023-05-23T03:08:26.402Z,55.79
2023-05-23T03:10:59.894Z,55.89
2023-05-23T03:13:33.946Z,56.04
2023-05-23T03:16:08.538Z,56.16
2023-05-23T03:18:43.370Z,56.15
2023-05-23T03:21:17.229Z,56.11
2023-05-23T03:23:51.629Z,56.04
2023-05-23T03:26:25.694Z,56.10
2023-05-23T03:28:59.775Z,56.22
2023-05-23T03:31:33.427Z,56.13
2023-05-23T03:34:07.181Z,56.09
2023-05-23T03:36:41.830Z,56.42
2023-05-23T03:39:16.420Z,56.40
2023-05-23T03:41:54.096Z,56.54
2023-05-23T03:44:27.848Z,56.49
2023-05-23T03:47:02.376Z,56.58
2023-05-23T03:49:36.604Z,56.41
2023-05-23T03:52:10.821Z,56.42
2023-05-23T03:54:45.036Z,56.36
2023-05-23T03:57:19.655Z,56.21
2023-05-23T03:59:53.973Z,56.13
2023-05-23T04:02:27.959Z,56.15
2023-05-23T04:05:22.721Z,56.19
2023-05-23T04:07:57.482Z,55.80
2023-05-23T04:10:30.844Z,55.03
2023-05-23T04:13:05.675Z,54.55
2023-05-23T04:15:40.322Z,54.18
2023-05-23T04:18:17.923Z,54.22
2023-05-23T04:20:51.765Z,54.45
2023-05-23T04:23:25.630Z,54.12
2023-05-23T04:26:00.782Z,53.70
2023-05-23T04:28:44.812Z,53.19
2023-05-23T04:31:19.570Z,53.07
2023-05-23T04:33:53.428Z,52.96
2023-05-23T04:36:27.834Z,52.63
2023-05-23T04:39:02.559Z,52.46
2023-05-23T04:41:40.510Z,52.15
2023-05-23T04:44:37.917Z,52.08
2023-05-23T04:47:19.609Z,51.79
2023-05-23T04:50:15.363Z,51.62
2023-05-23T04:52:49.457Z,51.49
2023-05-23T04:55:23.605Z,51.39
2023-05-23T04:57:57.689Z,51.40
2023-05-23T05:00:31.997Z,51.35
2023-05-23T05:03:05.863Z,50.71
2023-05-23T05:05:39.821Z,50.25
2023-05-23T05:08:14.792Z,50.28
2023-05-23T05:10:49.015Z,50.63
2023-05-23T05:13:24.722Z,50.25
2023-05-23T05:16:01.511Z,49.59
2023-05-23T05:18:36.001Z,49.77
2023-05-23T05:21:09.830Z,49.72
2023-05-23T05:23:45.048Z,48.72
2023-05-23T05:26:21.942Z,47.37
2023-05-23T05:28:57.394Z,46.14
2023-05-23T05:31:31.048Z,45.87
2023-05-23T05:34:04.790Z,45.88
2023-05-23T05:36:39.356Z,44.21
2023-05-23T05:39:14.562Z,43.21
2023-05-23T05:41:48.571Z,42.09
2023-05-23T05:44:22.425Z,41.30
2023-05-23T05:46:57.930Z,41.50
2023-05-23T05:49:32.666Z,41.60
2023-05-23T05:52:07.300Z,41.22
2023-05-23T05:54:41.333Z,41.31
2023-05-23T05:57:15.406Z,41.64
2023-05-23T05:59:49.382Z,41.52
2023-05-23T06:02:23.700Z,40.63
2023-05-23T06:04:57.486Z,40.08
2023-05-23T06:07:31.335Z,40.44
2023-05-23T06:10:05.484Z,40.22
2023-05-23T06:12:39.483Z,39.88
2023-05-23T06:15:16.376Z,39.88
2023-05-23T06:17:50.213Z,39.48
2023-05-23T06:20:24.049Z,39.57
2023-05-23T06:22:58.548Z,39.74
2023-05-23T06:25:32.858Z,39.96
2023-05-23T06:28:06.930Z,40.01
2023-05-23T06:30:41.464Z,39.90
2023-05-23T06:33:15.378Z,39.69
2023-05-23T06:35:49.667Z,40.06
2023-05-23T06:38:23.384Z,40.48
2023-05-23T06:40:57.503Z,40.55
2023-05-23T06:43:31.341Z,39.43
2023-05-23T06:46:26.120Z,38.31
2023-05-23T06:49:13.855Z,37.71
2023-05-23T06:51:49.914Z,37.15
2023-05-23T06:54:23.905Z,37.21
2023-05-23T06:56:57.903Z,35.03
2023-05-23T06:59:32.643Z,31.63
2023-05-23T07:02:08.075Z,30.34
2023-05-23T07:04:42.146Z,28.83
2023-05-23T07:07:21.430Z,28.00
2023-05-23T07:09:54.904Z,27.89
2023-05-23T07:12:29.738Z,27.97
2023-05-23T07:15:03.303Z,27.61
2023-05-23T07:17:37.341Z,27.10
2023-05-23T07:20:13.379Z,27.02
2023-05-23T07:22:52.051Z,27.48
2023-05-23T07:25:25.691Z,27.65
2023-05-23T07:28:00.199Z,28.83
2023-05-23T07:30:34.207Z,29.17
2023-05-23T07:33:08.232Z,29.11
2023-05-23T07:35:46.106Z,28.20
2023-05-23T07:38:20.105Z,28.77
2023-05-23T07:41:03.028Z,28.94
2023-05-23T07:43:44.539Z,28.30
2023-05-23T07:46:18.718Z,28.16
2023-05-23T07:48:52.689Z,28.64
2023-05-23T07:51:26.474Z,28.78
2023-05-23T07:54:00.577Z,29.08
2023-05-23T07:56:34.460Z,29.18
2023-05-23T07:59:08.877Z,30.19
2023-05-23T08:01:45.138Z,30.57
2023-05-23T08:04:24.442Z,30.53
2023-05-23T08:09:42.649Z,30.38
2023-05-23T08:12:18.533Z,30.08
2023-05-23T08:14:53.424Z,29.54
2023-05-23T08:17:30.800Z,29.79
2023-05-23T08:20:05.753Z,29.54
2023-05-23T08:22:40.170Z,29.55
2023-05-23T08:25:14.522Z,30.06
2023-05-23T08:27:48.420Z,29.82
2023-05-23T08:30:45.378Z,29.57
2023-05-23T08:33:19.106Z,30.17
2023-05-23T08:35:54.131Z,30.10
2023-05-23T08:38:28.090Z,29.89
2023-05-23T08:41:18.832Z,30.00
2023-05-23T08:43:53.335Z,30.46
2023-05-23T08:46:36.047Z,30.31
2023-05-23T08:49:12.529Z,30.38
2023-05-23T08:51:48.934Z,30.58
2023-05-23T08:54:27.541Z,30.72
2023-05-23T08:57:01.633Z,30.32
2023-05-23T08:59:37.153Z,30.56
2023-05-23T09:02:15.011Z,29.37
2023-05-23T09:04:48.667Z,28.88
2023-05-23T09:07:27.536Z,28.71
2023-05-23T09:10:01.879Z,28.15
2023-05-23T09:12:36.900Z,28.64
2023-05-23T09:15:12.802Z,28.09
2023-05-23T09:17:47.344Z,27.57
2023-05-23T09:20:21.961Z,27.50
2023-05-23T09:23:02.960Z,27.79
2023-05-23T09:25:42.222Z,27.63
2023-05-23T09:28:16.852Z,27.88
2023-05-23T09:30:50.695Z,27.55
2023-05-23T09:33:30.679Z,26.95
2023-05-23T09:36:05.095Z,26.78
2023-05-23T09:38:41.862Z,27.08
2023-05-23T09:41:16.453Z,27.49
2023-05-23T09:44:01.830Z,27.52
2023-05-23T09:46:39.871Z,27.68
2023-05-23T09:49:22.758Z,28.21
2023-05-23T09:52:03.312Z,28.41
2023-05-23T09:54:37.086Z,28.04
2023-05-23T09:57:13.543Z,28.35
2023-05-23T09:59:56.430Z,27.59
2023-05-23T10:03:00.393Z,27.82
2023-05-23T10:05:40.637Z,27.82
2023-05-23T10:08:20.570Z,27.52
2023-05-23T10:14:15.939Z,27.43
2023-05-23T10:17:01.488Z,27.61
2023-05-23T10:19:40.704Z,27.52
2023-05-23T10:22:17.207Z,27.04
2023-05-23T10:24:52.256Z,26.44
2023-05-23T10:27:26.250Z,26.47
2023-05-23T10:30:00.899Z,26.79
2023-05-23T10:32:36.138Z,26.71
2023-05-23T10:35:16.311Z,26.71
2023-05-23T10:37:57.926Z,27.43
2023-05-23T10:40:45.274Z,27.13
2023-05-23T10:43:26.806Z,26.90
2023-05-23T10:46:01.615Z,26.75
2023-05-23T10:48:43.349Z,27.09
2023-05-23T10:51:17.831Z,26.33
2023-05-23T10:53:56.801Z,26.21
2023-05-23T10:56:37.641Z,26.70
2023-05-23T10:59:22.114Z,26.08
2023-05-23T11:01:57.624Z,25.69
2023-05-23T11:04:32.207Z,25.44
2023-05-23T11:07:06.300Z,25.51
2023-05-23T11:10:01.022Z,25.43
2023-05-23T11:12:42.864Z,25.69
2023-05-23T11:15:45.495Z,25.85
2023-05-23T11:18:28.713Z,26.24
2023-05-23T11:21:05.035Z,26.09
2023-05-23T11:23:45.218Z,25.94
2023-05-23T11:26:34.682Z,26.48
2023-05-23T11:29:12.846Z,27.03
2023-05-23T11:31:45.045Z,27.19
2023-05-23T11:34:19.744Z,26.94
2023-05-23T11:36:58.447Z,27.03
2023-05-23T11:39:32.296Z,26.58
2023-05-23T11:42:07.416Z,26.55
2023-05-23T11:44:41.344Z,27.18
2023-05-23T11:47:14.903Z,27.12
2023-05-23T11:49:49.690Z,27.33
2023-05-23T11:52:23.749Z,27.48
2023-05-23T11:55:02.071Z,27.09
2023-05-23T11:57:39.668Z,26.96
2023-05-23T12:00:16.498Z,27.08
2023-05-23T12:02:50.709Z,26.85
2023-05-23T12:05:24.856Z,26.92
2023-05-23T12:08:01.707Z,26.96
2023-05-23T12:10:35.329Z,26.59
2023-05-23T12:13:09.337Z,26.66
2023-05-23T12:15:43.707Z,26.78
2023-05-23T12:18:17.863Z,26.46
2023-05-23T12:20:52.802Z,26.97
2023-05-23T12:23:28.784Z,27.03
2023-05-23T12:26:02.456Z,26.69
2023-05-23T12:28:45.557Z,26.92
2023-05-23T12:31:21.754Z,26.89
2023-05-23T12:33:56.735Z,26.87
2023-05-23T12:36:32.649Z,26.99
2023-05-23T12:39:08.003Z,27.00
2023-05-23T12:41:43.377Z,27.26
2023-05-23T12:44:21.067Z,27.51
2023-05-23T12:46:55.221Z,27.58
2023-05-23T12:49:28.817Z,27.46
2023-05-23T12:52:02.729Z,27.42
2023-05-23T12:54:36.544Z,27.54
2023-05-23T12:57:10.427Z,27.53
2023-05-23T12:59:44.199Z,27.73
2023-05-23T13:02:18.340Z,27.99
2023-05-23T13:04:52.900Z,28.25
2023-05-23T13:07:27.137Z,28.27
2023-05-23T13:10:01.379Z,28.18
2023-05-23T13:12:35.119Z,28.03
2023-05-23T13:15:10.824Z,27.79
2023-05-23T13:17:48.035Z,27.87
2023-05-23T13:20:24.048Z,28.35
2023-05-23T13:22:57.442Z,28.55
2023-05-23T13:25:31.328Z,28.37
2023-05-23T13:28:05.336Z,28.30
2023-05-23T13:30:39.351Z,27.82
2023-05-23T13:33:13.321Z,28.03
2023-05-23T13:35:49.700Z,27.81
2023-05-23T13:38:26.038Z,28.25
2023-05-23T13:41:00.939Z,28.67
2023-05-23T13:43:34.830Z,28.44
2023-05-23T13:46:09.599Z,28.25
2023-05-23T13:48:43.492Z,27.89
2023-05-23T13:51:17.290Z,27.91
2023-05-23T13:53:51.201Z,28.09
2023-05-23T13:56:26.434Z,27.88
2023-05-23T13:59:00.152Z,27.80
2023-05-23T14:01:34.029Z,28.04
2023-05-23T14:04:07.781Z,27.81
2023-05-23T14:06:42.255Z,28.23
2023-05-23T14:09:16.636Z,28.03
2023-05-23T14:11:52.163Z,27.99
2023-05-23T14:14:27.491Z,27.73
2023-05-23T14:17:01.739Z,27.88
2023-05-23T14:19:36.929Z,27.99
2023-05-23T14:22:11.846Z,27.88
2023-05-23T14:24:47.039Z,27.55
2023-05-23T14:27:21.162Z,27.88
2023-05-23T14:29:55.376Z,28.04
2023-05-23T14:32:29.055Z,27.93
2023-05-23T14:35:03.038Z,27.66
2023-05-23T14:37:37.012Z,27.84
2023-05-23T14:40:14.636Z,27.74
2023-05-23T14:42:49.580Z,27.68
2023-05-23T14:45:24.946Z,27.46
2023-05-23T14:47:59.360Z,27.83
2023-05-23T14:50:33.286Z,27.93
2023-05-23T14:53:07.054Z,28.00
2023-05-23T14:55:41.847Z,28.19
2023-05-23T14:58:16.223Z,27.95
2023-05-23T15:00:50.249Z,28.09
2023-05-23T15:03:24.535Z,28.47
2023-05-23T15:05:58.715Z,28.30
2023-05-23T15:08:32.824Z,28.39
2023-05-23T15:11:06.552Z,28.45
2023-05-23T15:13:40.310Z,28.35
2023-05-23T15:16:14.966Z,28.27
2023-05-23T15:18:49.766Z,28.07
2023-05-23T15:21:24.216Z,28.15
2023-05-23T15:23:59.353Z,28.30
2023-05-23T15:26:33.671Z,28.47
2023-05-23T15:29:07.929Z,28.29
2023-05-23T15:31:45.412Z,28.60
2023-05-23T15:34:19.392Z,28.55
2023-05-23T15:36:53.581Z,28.46
2023-05-23T15:39:28.453Z,28.22
2023-05-23T15:42:03.743Z,28.38
2023-05-23T15:44:38.322Z,28.27
2023-05-23T15:47:13.070Z,27.98
2023-05-23T15:49:47.467Z,28.07
2023-05-23T15:52:21.475Z,28.01
2023-05-23T15:54:55.241Z,28.18
2023-05-23T15:57:28.773Z,28.03
2023-05-23T16:00:02.471Z,28.10
2023-05-23T16:02:47.199Z,28.00
2023-05-23T16:05:21.876Z,28.03
2023-05-23T16:07:56.827Z,28.29
2023-05-23T16:10:31.561Z,28.20
2023-05-23T16:13:05.902Z,28.19
2023-05-23T16:15:40.533Z,28.32
2023-05-23T16:18:16.196Z,28.12
2023-05-23T16:20:50.373Z,28.17
2023-05-23T16:23:23.922Z,28.34
2023-05-23T16:25:57.882Z,28.10
2023-05-23T16:28:32.199Z,28.35
2023-05-23T16:31:06.193Z,28.43
2023-05-23T16:33:39.933Z,28.50
2023-05-23T16:36:14.298Z,28.72
2023-05-23T16:38:48.366Z,28.67
2023-05-23T16:41:21.983Z,28.51
2023-05-23T16:43:56.062Z,28.48
2023-05-23T16:46:29.995Z,28.50
2023-05-23T16:49:04.081Z,28.33
2023-05-23T16:51:38.619Z,28.36
2023-05-23T16:54:13.076Z,28.52
2023-05-23T16:56:47.238Z,28.76
2023-05-23T16:59:21.979Z,28.89
2023-05-23T17:01:56.491Z,28.85
2023-05-23T17:04:30.456Z,29.02
2023-05-23T17:07:04.203Z,29.15
2023-05-23T17:09:38.221Z,29.15
2023-05-23T17:12:12.831Z,29.34
2023-05-23T17:14:46.850Z,29.56
2023-05-23T17:17:21.497Z,29.53
2023-05-23T17:19:55.430Z,29.67
2023-05-23T17:22:31.159Z,29.72
2023-05-23T17:25:06.719Z,29.78
2023-05-23T17:27:41.432Z,29.81
2023-05-23T17:30:18.932Z,30.06
2023-05-23T17:32:53.429Z,30.27
2023-05-23T17:35:27.481Z,30.27
2023-05-23T17:38:02.805Z,30.24
2023-05-23T17:40:36.595Z,30.56
2023-05-23T17:43:10.292Z,30.56
2023-05-23T17:45:44.221Z,30.80
2023-05-23T17:48:18.952Z,30.94
2023-05-23T17:50:53.251Z,31.17
2023-05-23T17:53:28.540Z,31.39
2023-05-23T17:56:02.284Z,31.57
2023-05-23T17:58:36.736Z,31.73
2023-05-23T18:01:12.067Z,31.83
2023-05-23T18:03:49.583Z,32.08
2023-05-23T18:06:23.117Z,32.90
2023-05-23T18:08:57.266Z,33.08
2023-05-23T18:11:31.435Z,33.08
2023-05-23T18:14:05.906Z,32.87
2023-05-23T18:16:39.872Z,32.90
2023-05-23T18:19:13.760Z,32.92
2023-05-23T18:21:47.677Z,33.51
2023-05-23T18:24:21.915Z,33.78
2023-05-23T18:26:55.551Z,33.57
2023-05-23T18:29:29.258Z,33.92
2023-05-23T18:32:03.062Z,34.21
2023-05-23T18:34:38.169Z,34.25
2023-05-23T18:37:11.915Z,34.28
2023-05-23T18:39:45.601Z,34.50
2023-05-23T18:42:19.592Z,34.44
2023-05-23T18:44:53.972Z,34.47
2023-05-23T18:47:28.360Z,34.70
2023-05-23T18:50:02.157Z,34.90
2023-05-23T18:52:37.740Z,35.12
2023-05-23T18:55:13.276Z,35.31
2023-05-23T18:57:47.772Z,35.43
2023-05-23T19:00:22.490Z,35.57
2023-05-23T19:02:55.945Z,35.78
2023-05-23T19:05:29.906Z,35.96
2023-05-23T19:08:04.111Z,36.13
2023-05-23T19:10:37.922Z,36.39
2023-05-23T19:13:11.392Z,36.56
2023-05-23T19:15:46.058Z,36.80
2023-05-23T19:18:20.708Z,36.84
2023-05-23T19:20:55.316Z,37.07
2023-05-23T19:23:29.584Z,37.01
2023-05-23T19:26:03.770Z,37.23
2023-05-23T19:28:38.282Z,37.26
2023-05-23T19:31:12.735Z,37.23
2023-05-23T19:33:46.633Z,37.42
2023-05-23T19:36:20.403Z,37.45
2023-05-23T19:38:54.494Z,37.58
2023-05-23T19:41:28.799Z,37.65
2023-05-23T19:44:03.033Z,37.64
2023-05-23T19:46:37.366Z,37.93
2023-05-23T19:49:11.606Z,38.16
2023-05-23T19:51:45.508Z,38.26
2023-05-23T19:54:19.839Z,38.17
2023-05-23T19:56:53.358Z,38.30
2023-05-23T19:59:27.308Z,38.42
2023-05-23T20:02:03.677Z,38.54
2023-05-23T20:04:41.303Z,38.86
2023-05-23T20:07:15.426Z,38.96
2023-05-23T20:09:48.963Z,38.83
2023-05-23T20:12:22.867Z,38.90
2023-05-23T20:14:57.822Z,39.08
2023-05-23T20:17:31.805Z,38.81
2023-05-23T20:20:06.038Z,38.87
2023-05-23T20:22:39.996Z,38.75
2023-05-23T20:25:14.207Z,39.04
2023-05-23T20:27:48.255Z,39.15
2023-05-23T20:30:22.449Z,39.12
2023-05-23T20:32:56.417Z,39.27
2023-05-23T20:35:30.617Z,39.41
2023-05-23T20:38:04.612Z,39.44
2023-05-23T20:40:38.998Z,39.50
2023-05-23T20:43:15.592Z,39.51
2023-05-23T20:45:49.841Z,39.48
2023-05-23T20:48:23.532Z,39.55
2023-05-23T20:50:57.657Z,39.77
2023-05-23T20:53:31.990Z,39.85
2023-05-23T20:56:06.145Z,39.93
2023-05-23T20:58:40.439Z,39.70
2023-05-23T21:01:15.523Z,39.78
2023-05-23T21:03:49.413Z,39.82
2023-05-23T21:06:23.550Z,39.66
2023-05-23T21:08:57.242Z,39.82
2023-05-23T21:11:34.258Z,39.94
2023-05-23T21:14:08.095Z,39.89
2023-05-23T21:16:41.880Z,39.97
2023-05-23T21:19:15.944Z,39.88
2023-05-23T21:21:50.948Z,40.01
2023-05-23T21:24:25.412Z,39.95
2023-05-23T21:27:02.131Z,39.91
2023-05-23T21:29:35.679Z,40.09
2023-05-23T21:32:09.682Z,40.19
2023-05-23T21:34:43.680Z,40.21
2023-05-23T21:37:17.642Z,40.23
2023-05-23T21:39:52.569Z,40.22
2023-05-23T21:42:26.590Z,40.30
2023-05-23T21:45:00.433Z,40.46
2023-05-23T21:47:34.933Z,40.48
2023-05-23T21:50:10.372Z,40.57
2023-05-23T21:52:43.813Z,40.68
2023-05-23T21:55:17.213Z,40.76
2023-05-23T21:57:51.191Z,40.65
2023-05-23T22:00:27.571Z,40.63
2023-05-23T22:03:01.323Z,40.52
2023-05-23T22:05:35.097Z,40.57
2023-05-23T22:08:08.781Z,40.44
2023-05-23T22:10:43.528Z,40.49
2023-05-23T22:13:17.843Z,40.59
2023-05-23T22:15:54.865Z,40.41
2023-05-23T22:18:30.627Z,40.35
2023-05-23T22:21:09.609Z,40.11
2023-05-23T22:23:43.582Z,39.98
2023-05-23T22:26:18.098Z,39.98
2023-05-23T22:28:53.960Z,40.18
2023-05-23T22:31:29.230Z,40.24
2023-05-23T22:34:03.418Z,40.11
2023-05-23T22:36:36.968Z,40.20
2023-05-23T22:39:11.265Z,40.10
2023-05-23T22:41:45.677Z,40.19
2023-05-23T22:44:19.614Z,40.30
2023-05-23T22:46:53.876Z,40.33
2023-05-23T22:49:30.712Z,40.27
2023-05-23T22:52:04.352Z,40.44
2023-05-23T22:54:38.014Z,40.38
2023-05-23T22:57:11.965Z,40.34
2023-05-23T22:59:46.001Z,40.43
2023-05-23T23:02:20.006Z,40.36
2023-05-23T23:04:54.069Z,40.34
2023-05-23T23:07:27.766Z,40.16
2023-05-23T23:10:01.187Z,40.28
2023-05-23T23:12:35.202Z,40.32
2023-05-23T23:15:10.635Z,40.22
2023-05-23T23:17:44.691Z,40.29
2023-05-23T23:20:19.775Z,40.40
2023-05-23T23:22:53.453Z,40.37
2023-05-23T23:25:27.607Z,40.36
2023-05-23T23:28:01.566Z,40.37
2023-05-23T23:30:35.639Z,40.51
2023-05-23T23:33:19.044Z,40.47
2023-05-23T23:35:53.183Z,40.46
2023-05-23T23:38:27.034Z,40.51
2023-05-23T23:41:00.956Z,40.54
2023-05-23T23:43:35.368Z,40.55
2023-05-23T23:46:09.355Z,40.54
2023-05-23T23:48:42.988Z,40.62
2023-05-23T23:51:17.376Z,40.88
2023-05-23T23:53:53.302Z,40.95
2023-05-23T23:56:27.933Z,40.91
2023-05-23T23:59:01.607Z,40.91
